sensor_id;sensor_type;location;lat;lon;timestamp;pressure;altitude;pressure_sealevel;temperature
25514;BMP180;48128;54.242;10.280;2024-02-23T00:00:12;97364.00;;;10.10
25514;BMP180;48128;54.242;10.280;2024-02-23T00:02:39;97340.00;;;9.90
25514;BMP180;48128;54.242;10.280;2024-02-23T00:05:06;97353.00;;;9.80
25514;BMP180;48128;54.242;10.280;2024-02-23T00:07:33;97390.00;;;9.70
25514;BMP180;48128;54.242;10.280;2024-02-23T00:10:00;97392.00;;;9.50
25514;BMP180;48128;54.242;10.280;2024-02-23T00:12:27;97390.00;;;9.50
25514;BMP180;48128;54.242;10.280;2024-02-23T00:14:54;97374.00;;;9.30
25514;BMP180;48128;54.242;10.280;2024-02-23T00:17:21;97370.00;;;9.20
25514;BMP180;48128;54.242;10.280;2024-02-23T00:19:48;97371.00;;;9.20
25514;BMP180;48128;54.242;10.280;2024-02-23T00:22:15;97370.00;;;9.10
25514;BMP180;48128;54.242;10.280;2024-02-23T00:24:42;97377.00;;;9.10
25514;BMP180;48128;54.242;10.280;2024-02-23T00:27:09;97394.00;;;9.10
25514;BMP180;48128;54.242;10.280;2024-02-23T00:29:36;97384.00;;;9.10
25514;BMP180;48128;54.242;10.280;2024-02-23T00:32:03;97377.00;;;9.10
25514;BMP180;48128;54.242;10.280;2024-02-23T00:34:32;97401.00;;;9.00
25514;BMP180;48128;54.242;10.280;2024-02-23T00:36:59;97411.00;;;9.00
25514;BMP180;48128;54.242;10.280;2024-02-23T00:39:28;97407.00;;;9.00
25514;BMP180;48128;54.242;10.280;2024-02-23T00:41:55;97390.00;;;8.90
25514;BMP180;48128;54.242;10.280;2024-02-23T00:44:22;97389.00;;;8.90
25514;BMP180;48128;54.242;10.280;2024-02-23T00:46:49;97417.00;;;8.90
25514;BMP180;48128;54.242;10.280;2024-02-23T00:49:16;97435.00;;;8.90
25514;BMP180;48128;54.242;10.280;2024-02-23T00:51:43;97446.00;;;8.90
25514;BMP180;48128;54.242;10.280;2024-02-23T00:54:10;97433.00;;;8.80
25514;BMP180;48128;54.242;10.280;2024-02-23T00:56:37;97439.00;;;8.80
25514;BMP180;48128;54.242;10.280;2024-02-23T00:59:17;97435.00;;;8.80
25514;BMP180;48128;54.242;10.280;2024-02-23T01:01:43;97456.00;;;8.70
25514;BMP180;48128;54.242;10.280;2024-02-23T01:04:10;97478.00;;;8.70
25514;BMP180;48128;54.242;10.280;2024-02-23T01:06:37;97455.00;;;8.60
25514;BMP180;48128;54.242;10.280;2024-02-23T01:09:04;97454.00;;;8.50
25514;BMP180;48128;54.242;10.280;2024-02-23T01:11:31;97410.00;;;8.20
25514;BMP180;48128;54.242;10.280;2024-02-23T01:13:58;97428.00;;;7.90
25514;BMP180;48128;54.242;10.280;2024-02-23T01:16:25;97423.00;;;7.70
25514;BMP180;48128;54.242;10.280;2024-02-23T01:18:52;97441.00;;;7.50
25514;BMP180;48128;54.242;10.280;2024-02-23T01:21:19;97442.00;;;7.40
25514;BMP180;48128;54.242;10.280;2024-02-23T01:23:46;97450.00;;;7.30
25514;BMP180;48128;54.242;10.280;2024-02-23T01:26:13;97479.00;;;7.30
25514;BMP180;48128;54.242;10.280;2024-02-23T01:28:40;97476.00;;;7.30
25514;BMP180;48128;54.242;10.280;2024-02-23T01:31:11;97527.00;;;7.30
25514;BMP180;48128;54.242;10.280;2024-02-23T01:33:39;97518.00;;;7.30
25514;BMP180;48128;54.242;10.280;2024-02-23T01:36:06;97541.00;;;7.30
25514;BMP180;48128;54.242;10.280;2024-02-23T01:38:34;97529.00;;;7.30
25514;BMP180;48128;54.242;10.280;2024-02-23T01:41:01;97545.00;;;7.20
25514;BMP180;48128;54.242;10.280;2024-02-23T01:43:28;97566.00;;;7.10
25514;BMP180;48128;54.242;10.280;2024-02-23T01:45:55;97556.00;;;7.10
25514;BMP180;48128;54.242;10.280;2024-02-23T01:48:22;97597.00;;;7.00
25514;BMP180;48128;54.242;10.280;2024-02-23T01:50:49;97593.00;;;7.00
25514;BMP180;48128;54.242;10.280;2024-02-23T01:53:16;97591.00;;;6.90
25514;BMP180;48128;54.242;10.280;2024-02-23T01:55:46;97587.00;;;6.90
25514;BMP180;48128;54.242;10.280;2024-02-23T01:58:14;97627.00;;;6.80
25514;BMP180;48128;54.242;10.280;2024-02-23T02:00:41;97610.00;;;6.70
25514;BMP180;48128;54.242;10.280;2024-02-23T02:03:08;97619.00;;;6.70
25514;BMP180;48128;54.242;10.280;2024-02-23T02:05:38;97644.00;;;6.70
25514;BMP180;48128;54.242;10.280;2024-02-23T02:08:06;97650.00;;;6.70
25514;BMP180;48128;54.242;10.280;2024-02-23T02:10:33;97637.00;;;6.60
25514;BMP180;48128;54.242;10.280;2024-02-23T02:13:03;97639.00;;;6.60
25514;BMP180;48128;54.242;10.280;2024-02-23T02:15:31;97641.00;;;6.60
25514;BMP180;48128;54.242;10.280;2024-02-23T02:17:58;97643.00;;;6.60
25514;BMP180;48128;54.242;10.280;2024-02-23T02:20:25;97646.00;;;6.60
25514;BMP180;48128;54.242;10.280;2024-02-23T02:22:55;97658.00;;;6.50
25514;BMP180;48128;54.242;10.280;2024-02-23T02:25:22;97677.00;;;6.50
25514;BMP180;48128;54.242;10.280;2024-02-23T02:27:49;97656.00;;;6.50
25514;BMP180;48128;54.242;10.280;2024-02-23T02:30:16;97681.00;;;6.40
25514;BMP180;48128;54.242;10.280;2024-02-23T02:32:43;97688.00;;;6.40
25514;BMP180;48128;54.242;10.280;2024-02-23T02:35:11;97692.00;;;6.40
25514;BMP180;48128;54.242;10.280;2024-02-23T02:37:39;97708.00;;;6.30
25514;BMP180;48128;54.242;10.280;2024-02-23T02:40:06;97728.00;;;6.30
25514;BMP180;48128;54.242;10.280;2024-02-23T02:42:33;97731.00;;;6.20
25514;BMP180;48128;54.242;10.280;2024-02-23T02:45:00;97749.00;;;6.20
25514;BMP180;48128;54.242;10.280;2024-02-23T02:47:27;97745.00;;;6.20
25514;BMP180;48128;54.242;10.280;2024-02-23T02:49:54;97745.00;;;6.20
25514;BMP180;48128;54.242;10.280;2024-02-23T02:52:21;97737.00;;;6.10
25514;BMP180;48128;54.242;10.280;2024-02-23T02:54:50;97749.00;;;6.10
25514;BMP180;48128;54.242;10.280;2024-02-23T02:57:17;97756.00;;;6.10
25514;BMP180;48128;54.242;10.280;2024-02-23T02:59:44;97760.00;;;6.00
25514;BMP180;48128;54.242;10.280;2024-02-23T03:02:13;97755.00;;;6.00
25514;BMP180;48128;54.242;10.280;2024-02-23T03:04:46;97756.00;;;5.90
25514;BMP180;48128;54.242;10.280;2024-02-23T03:07:14;97774.00;;;5.90
25514;BMP180;48128;54.242;10.280;2024-02-23T03:09:40;97789.00;;;5.90
25514;BMP180;48128;54.242;10.280;2024-02-23T03:12:10;97785.00;;;5.90
25514;BMP180;48128;54.242;10.280;2024-02-23T03:14:37;97792.00;;;5.80
25514;BMP180;48128;54.242;10.280;2024-02-23T03:17:07;97810.00;;;5.70
25514;BMP180;48128;54.242;10.280;2024-02-23T03:19:36;97816.00;;;5.70
25514;BMP180;48128;54.242;10.280;2024-02-23T03:22:03;97833.00;;;5.70
25514;BMP180;48128;54.242;10.280;2024-02-23T03:24:30;97839.00;;;5.70
25514;BMP180;48128;54.242;10.280;2024-02-23T03:26:57;97842.00;;;5.60
25514;BMP180;48128;54.242;10.280;2024-02-23T03:29:24;97852.00;;;5.60
25514;BMP180;48128;54.242;10.280;2024-02-23T03:31:51;97858.00;;;5.60
25514;BMP180;48128;54.242;10.280;2024-02-23T03:34:19;97851.00;;;5.60
25514;BMP180;48128;54.242;10.280;2024-02-23T03:36:46;97863.00;;;5.60
25514;BMP180;48128;54.242;10.280;2024-02-23T03:39:13;97849.00;;;5.60
25514;BMP180;48128;54.242;10.280;2024-02-23T03:41:42;97869.00;;;5.60
25514;BMP180;48128;54.242;10.280;2024-02-23T03:44:09;97870.00;;;5.60
25514;BMP180;48128;54.242;10.280;2024-02-23T03:46:36;97874.00;;;5.60
25514;BMP180;48128;54.242;10.280;2024-02-23T03:49:03;97907.00;;;5.60
25514;BMP180;48128;54.242;10.280;2024-02-23T03:51:30;97911.00;;;5.60
25514;BMP180;48128;54.242;10.280;2024-02-23T03:53:59;97915.00;;;5.60
25514;BMP180;48128;54.242;10.280;2024-02-23T03:56:26;97908.00;;;5.70
25514;BMP180;48128;54.242;10.280;2024-02-23T03:58:53;97922.00;;;5.70
25514;BMP180;48128;54.242;10.280;2024-02-23T04:01:20;97912.00;;;5.60
25514;BMP180;48128;54.242;10.280;2024-02-23T04:03:47;97935.00;;;5.60
25514;BMP180;48128;54.242;10.280;2024-02-23T04:06:14;97930.00;;;5.60
25514;BMP180;48128;54.242;10.280;2024-02-23T04:08:41;97937.00;;;5.60
25514;BMP180;48128;54.242;10.280;2024-02-23T04:11:08;97938.00;;;5.60
25514;BMP180;48128;54.242;10.280;2024-02-23T04:13:39;97939.00;;;5.60
25514;BMP180;48128;54.242;10.280;2024-02-23T04:16:06;97948.00;;;5.60
25514;BMP180;48128;54.242;10.280;2024-02-23T04:18:33;97961.00;;;5.60
25514;BMP180;48128;54.242;10.280;2024-02-23T04:21:00;97974.00;;;5.60
25514;BMP180;48128;54.242;10.280;2024-02-23T04:23:26;97984.00;;;5.60
25514;BMP180;48128;54.242;10.280;2024-02-23T04:25:53;97984.00;;;5.60
25514;BMP180;48128;54.242;10.280;2024-02-23T04:28:21;97981.00;;;5.60
25514;BMP180;48128;54.242;10.280;2024-02-23T04:30:48;98005.00;;;5.50
25514;BMP180;48128;54.242;10.280;2024-02-23T04:33:15;97989.00;;;5.50
25514;BMP180;48128;54.242;10.280;2024-02-23T04:35:42;98016.00;;;5.50
25514;BMP180;48128;54.242;10.280;2024-02-23T04:38:09;98006.00;;;5.50
25514;BMP180;48128;54.242;10.280;2024-02-23T04:40:36;98024.00;;;5.60
25514;BMP180;48128;54.242;10.280;2024-02-23T04:43:03;98027.00;;;5.60
25514;BMP180;48128;54.242;10.280;2024-02-23T04:45:29;98032.00;;;5.60
25514;BMP180;48128;54.242;10.280;2024-02-23T04:47:56;98054.00;;;5.60
25514;BMP180;48128;54.242;10.280;2024-02-23T04:50:23;98062.00;;;5.60
25514;BMP180;48128;54.242;10.280;2024-02-23T04:52:50;98078.00;;;5.60
25514;BMP180;48128;54.242;10.280;2024-02-23T04:55:17;98095.00;;;5.60
25514;BMP180;48128;54.242;10.280;2024-02-23T04:57:44;98102.00;;;5.60
25514;BMP180;48128;54.242;10.280;2024-02-23T05:00:12;98098.00;;;5.70
25514;BMP180;48128;54.242;10.280;2024-02-23T05:02:38;98094.00;;;5.70
25514;BMP180;48128;54.242;10.280;2024-02-23T05:05:06;98098.00;;;5.70
25514;BMP180;48128;54.242;10.280;2024-02-23T05:07:34;98115.00;;;5.70
25514;BMP180;48128;54.242;10.280;2024-02-23T05:10:01;98118.00;;;5.70
25514;BMP180;48128;54.242;10.280;2024-02-23T05:12:28;98113.00;;;5.70
25514;BMP180;48128;54.242;10.280;2024-02-23T05:14:55;98125.00;;;5.60
25514;BMP180;48128;54.242;10.280;2024-02-23T05:17:22;98122.00;;;5.60
25514;BMP180;48128;54.242;10.280;2024-02-23T05:19:50;98121.00;;;5.60
25514;BMP180;48128;54.242;10.280;2024-02-23T05:22:17;98130.00;;;5.60
25514;BMP180;48128;54.242;10.280;2024-02-23T05:24:46;98123.00;;;5.50
25514;BMP180;48128;54.242;10.280;2024-02-23T05:27:13;98144.00;;;5.50
25514;BMP180;48128;54.242;10.280;2024-02-23T05:29:40;98140.00;;;5.50
25514;BMP180;48128;54.242;10.280;2024-02-23T05:32:07;98142.00;;;5.50
25514;BMP180;48128;54.242;10.280;2024-02-23T05:34:34;98147.00;;;5.50
25514;BMP180;48128;54.242;10.280;2024-02-23T05:37:02;98160.00;;;5.40
25514;BMP180;48128;54.242;10.280;2024-02-23T05:39:29;98149.00;;;5.40
25514;BMP180;48128;54.242;10.280;2024-02-23T05:41:56;98153.00;;;5.40
25514;BMP180;48128;54.242;10.280;2024-02-23T05:44:24;98157.00;;;5.40
25514;BMP180;48128;54.242;10.280;2024-02-23T05:46:50;98166.00;;;5.40
25514;BMP180;48128;54.242;10.280;2024-02-23T05:49:17;98149.00;;;5.40
25514;BMP180;48128;54.242;10.280;2024-02-23T05:51:45;98146.00;;;5.40
25514;BMP180;48128;54.242;10.280;2024-02-23T05:54:12;98173.00;;;5.40
25514;BMP180;48128;54.242;10.280;2024-02-23T05:56:39;98170.00;;;5.40
25514;BMP180;48128;54.242;10.280;2024-02-23T05:59:06;98176.00;;;5.40
25514;BMP180;48128;54.242;10.280;2024-02-23T06:01:33;98180.00;;;5.40
25514;BMP180;48128;54.242;10.280;2024-02-23T06:04:00;98194.00;;;5.40
25514;BMP180;48128;54.242;10.280;2024-02-23T06:06:27;98196.00;;;5.30
25514;BMP180;48128;54.242;10.280;2024-02-23T06:08:54;98222.00;;;5.30
25514;BMP180;48128;54.242;10.280;2024-02-23T06:11:21;98221.00;;;5.30
25514;BMP180;48128;54.242;10.280;2024-02-23T06:13:48;98218.00;;;5.30
25514;BMP180;48128;54.242;10.280;2024-02-23T06:16:15;98219.00;;;5.30
25514;BMP180;48128;54.242;10.280;2024-02-23T06:18:42;98234.00;;;5.40
25514;BMP180;48128;54.242;10.280;2024-02-23T06:21:13;98231.00;;;5.40
25514;BMP180;48128;54.242;10.280;2024-02-23T06:23:41;98241.00;;;5.40
25514;BMP180;48128;54.242;10.280;2024-02-23T06:26:08;98242.00;;;5.40
25514;BMP180;48128;54.242;10.280;2024-02-23T06:28:35;98245.00;;;5.40
25514;BMP180;48128;54.242;10.280;2024-02-23T06:31:04;98260.00;;;5.40
25514;BMP180;48128;54.242;10.280;2024-02-23T06:33:32;98251.00;;;5.50
25514;BMP180;48128;54.242;10.280;2024-02-23T06:35:59;98274.00;;;5.50
25514;BMP180;48128;54.242;10.280;2024-02-23T06:38:27;98280.00;;;5.50
25514;BMP180;48128;54.242;10.280;2024-02-23T06:40:54;98297.00;;;5.50
25514;BMP180;48128;54.242;10.280;2024-02-23T06:43:22;98302.00;;;5.50
25514;BMP180;48128;54.242;10.280;2024-02-23T06:45:49;98303.00;;;5.50
25514;BMP180;48128;54.242;10.280;2024-02-23T06:48:18;98302.00;;;5.50
25514;BMP180;48128;54.242;10.280;2024-02-23T06:50:45;98303.00;;;5.50
25514;BMP180;48128;54.242;10.280;2024-02-23T06:53:12;98326.00;;;5.60
25514;BMP180;48128;54.242;10.280;2024-02-23T06:55:40;98327.00;;;5.60
25514;BMP180;48128;54.242;10.280;2024-02-23T06:58:08;98347.00;;;5.60
25514;BMP180;48128;54.242;10.280;2024-02-23T07:00:37;98368.00;;;5.60
25514;BMP180;48128;54.242;10.280;2024-02-23T07:03:05;98378.00;;;5.60
25514;BMP180;48128;54.242;10.280;2024-02-23T07:05:32;98377.00;;;5.60
25514;BMP180;48128;54.242;10.280;2024-02-23T07:07:59;98385.00;;;5.60
25514;BMP180;48128;54.242;10.280;2024-02-23T07:10:26;98389.00;;;5.60
25514;BMP180;48128;54.242;10.280;2024-02-23T07:12:53;98401.00;;;5.60
25514;BMP180;48128;54.242;10.280;2024-02-23T07:15:21;98408.00;;;5.50
25514;BMP180;48128;54.242;10.280;2024-02-23T07:17:48;98394.00;;;5.60
25514;BMP180;48128;54.242;10.280;2024-02-23T07:20:15;98425.00;;;5.60
25514;BMP180;48128;54.242;10.280;2024-02-23T07:22:44;98411.00;;;5.50
25514;BMP180;48128;54.242;10.280;2024-02-23T07:25:12;98430.00;;;5.50
25514;BMP180;48128;54.242;10.280;2024-02-23T07:27:38;98421.00;;;5.50
25514;BMP180;48128;54.242;10.280;2024-02-23T07:30:06;98415.00;;;5.50
25514;BMP180;48128;54.242;10.280;2024-02-23T07:32:33;98427.00;;;5.50
25514;BMP180;48128;54.242;10.280;2024-02-23T07:35:01;98441.00;;;5.50
25514;BMP180;48128;54.242;10.280;2024-02-23T07:37:30;98437.00;;;5.50
25514;BMP180;48128;54.242;10.280;2024-02-23T07:39:57;98448.00;;;5.60
25514;BMP180;48128;54.242;10.280;2024-02-23T07:42:24;98457.00;;;5.60
25514;BMP180;48128;54.242;10.280;2024-02-23T07:44:51;98462.00;;;5.60
25514;BMP180;48128;54.242;10.280;2024-02-23T07:47:18;98463.00;;;5.60
25514;BMP180;48128;54.242;10.280;2024-02-23T07:49:45;98468.00;;;5.60
25514;BMP180;48128;54.242;10.280;2024-02-23T07:52:12;98467.00;;;5.60
25514;BMP180;48128;54.242;10.280;2024-02-23T07:54:39;98466.00;;;5.60
25514;BMP180;48128;54.242;10.280;2024-02-23T07:57:05;98479.00;;;5.60
25514;BMP180;48128;54.242;10.280;2024-02-23T07:59:33;98467.00;;;5.70
25514;BMP180;48128;54.242;10.280;2024-02-23T08:02:00;98475.00;;;5.80
25514;BMP180;48128;54.242;10.280;2024-02-23T08:04:27;98487.00;;;5.80
25514;BMP180;48128;54.242;10.280;2024-02-23T08:06:54;98503.00;;;5.80
25514;BMP180;48128;54.242;10.280;2024-02-23T08:09:24;98487.00;;;5.80
25514;BMP180;48128;54.242;10.280;2024-02-23T08:11:51;98504.00;;;5.80
25514;BMP180;48128;54.242;10.280;2024-02-23T08:14:18;98503.00;;;5.90
25514;BMP180;48128;54.242;10.280;2024-02-23T08:16:46;98519.00;;;5.90
25514;BMP180;48128;54.242;10.280;2024-02-23T08:19:13;98517.00;;;5.90
25514;BMP180;48128;54.242;10.280;2024-02-23T08:21:40;98517.00;;;5.90
25514;BMP180;48128;54.242;10.280;2024-02-23T08:24:08;98525.00;;;5.90
25514;BMP180;48128;54.242;10.280;2024-02-23T08:26:35;98540.00;;;5.90
25514;BMP180;48128;54.242;10.280;2024-02-23T08:29:02;98535.00;;;6.00
25514;BMP180;48128;54.242;10.280;2024-02-23T08:31:29;98536.00;;;6.00
25514;BMP180;48128;54.242;10.280;2024-02-23T08:33:56;98547.00;;;6.00
25514;BMP180;48128;54.242;10.280;2024-02-23T08:36:23;98556.00;;;6.00
25514;BMP180;48128;54.242;10.280;2024-02-23T08:38:51;98571.00;;;6.00
25514;BMP180;48128;54.242;10.280;2024-02-23T08:41:18;98564.00;;;6.00
25514;BMP180;48128;54.242;10.280;2024-02-23T08:43:45;98571.00;;;6.00
25514;BMP180;48128;54.242;10.280;2024-02-23T08:46:12;98557.00;;;6.10
25514;BMP180;48128;54.242;10.280;2024-02-23T08:48:39;98570.00;;;6.20
25514;BMP180;48128;54.242;10.280;2024-02-23T08:51:06;98585.00;;;6.30
25514;BMP180;48128;54.242;10.280;2024-02-23T08:53:33;98595.00;;;6.40
25514;BMP180;48128;54.242;10.280;2024-02-23T08:56:00;98601.00;;;6.50
25514;BMP180;48128;54.242;10.280;2024-02-23T08:58:27;98611.00;;;6.60
25514;BMP180;48128;54.242;10.280;2024-02-23T09:00:54;98607.00;;;6.70
25514;BMP180;48128;54.242;10.280;2024-02-23T09:03:22;98624.00;;;6.70
25514;BMP180;48128;54.242;10.280;2024-02-23T09:05:49;98627.00;;;6.70
25514;BMP180;48128;54.242;10.280;2024-02-23T09:08:17;98629.00;;;6.80
25514;BMP180;48128;54.242;10.280;2024-02-23T09:10:44;98643.00;;;6.80
25514;BMP180;48128;54.242;10.280;2024-02-23T09:13:10;98630.00;;;6.90
25514;BMP180;48128;54.242;10.280;2024-02-23T09:15:38;98652.00;;;7.10
25514;BMP180;48128;54.242;10.280;2024-02-23T09:18:05;98661.00;;;7.10
25514;BMP180;48128;54.242;10.280;2024-02-23T09:20:32;98669.00;;;7.20
25514;BMP180;48128;54.242;10.280;2024-02-23T09:22:59;98683.00;;;7.30
25514;BMP180;48128;54.242;10.280;2024-02-23T09:25:26;98683.00;;;7.40
25514;BMP180;48128;54.242;10.280;2024-02-23T09:27:56;98678.00;;;7.50
25514;BMP180;48128;54.242;10.280;2024-02-23T09:30:23;98692.00;;;7.50
25514;BMP180;48128;54.242;10.280;2024-02-23T09:32:50;98693.00;;;7.50
25514;BMP180;48128;54.242;10.280;2024-02-23T09:35:17;98683.00;;;7.50
25514;BMP180;48128;54.242;10.280;2024-02-23T09:37:44;98708.00;;;7.40
25514;BMP180;48128;54.242;10.280;2024-02-23T09:40:11;98712.00;;;7.40
25514;BMP180;48128;54.242;10.280;2024-02-23T09:42:38;98726.00;;;7.40
25514;BMP180;48128;54.242;10.280;2024-02-23T09:45:06;98725.00;;;7.40
25514;BMP180;48128;54.242;10.280;2024-02-23T09:47:33;98733.00;;;7.30
25514;BMP180;48128;54.242;10.280;2024-02-23T09:50:05;98739.00;;;7.30
25514;BMP180;48128;54.242;10.280;2024-02-23T09:52:32;98724.00;;;7.40
25514;BMP180;48128;54.242;10.280;2024-02-23T09:54:59;98725.00;;;7.50
25514;BMP180;48128;54.242;10.280;2024-02-23T09:57:26;98741.00;;;7.60
25514;BMP180;48128;54.242;10.280;2024-02-23T09:59:53;98753.00;;;7.60
25514;BMP180;48128;54.242;10.280;2024-02-23T10:02:21;98763.00;;;7.70
25514;BMP180;48128;54.242;10.280;2024-02-23T10:04:48;98763.00;;;7.70
25514;BMP180;48128;54.242;10.280;2024-02-23T10:07:18;98786.00;;;7.60
25514;BMP180;48128;54.242;10.280;2024-02-23T10:09:45;98797.00;;;7.60
25514;BMP180;48128;54.242;10.280;2024-02-23T10:12:12;98783.00;;;7.60
25514;BMP180;48128;54.242;10.280;2024-02-23T10:14:41;98812.00;;;7.80
25514;BMP180;48128;54.242;10.280;2024-02-23T10:17:08;98830.00;;;7.80
25514;BMP180;48128;54.242;10.280;2024-02-23T10:19:35;98832.00;;;7.80
25514;BMP180;48128;54.242;10.280;2024-02-23T10:22:02;98843.00;;;7.80
25514;BMP180;48128;54.242;10.280;2024-02-23T10:24:29;98833.00;;;7.80
25514;BMP180;48128;54.242;10.280;2024-02-23T10:26:56;98838.00;;;7.80
25514;BMP180;48128;54.242;10.280;2024-02-23T10:29:23;98844.00;;;7.80
25514;BMP180;48128;54.242;10.280;2024-02-23T10:31:52;98865.00;;;7.90
25514;BMP180;48128;54.242;10.280;2024-02-23T10:34:20;98851.00;;;8.00
25514;BMP180;48128;54.242;10.280;2024-02-23T10:36:47;98853.00;;;8.00
25514;BMP180;48128;54.242;10.280;2024-02-23T10:39:16;98874.00;;;8.10
25514;BMP180;48128;54.242;10.280;2024-02-23T10:41:47;98893.00;;;8.10
25514;BMP180;48128;54.242;10.280;2024-02-23T10:44:16;98904.00;;;8.10
25514;BMP180;48128;54.242;10.280;2024-02-23T10:46:43;98927.00;;;8.10
25514;BMP180;48128;54.242;10.280;2024-02-23T10:49:11;98901.00;;;8.00
25514;BMP180;48128;54.242;10.280;2024-02-23T10:51:39;98899.00;;;8.00
25514;BMP180;48128;54.242;10.280;2024-02-23T10:54:07;98902.00;;;8.20
25514;BMP180;48128;54.242;10.280;2024-02-23T10:56:34;98906.00;;;8.30
25514;BMP180;48128;54.242;10.280;2024-02-23T10:59:02;98919.00;;;8.50
25514;BMP180;48128;54.242;10.280;2024-02-23T11:01:29;98914.00;;;8.50
25514;BMP180;48128;54.242;10.280;2024-02-23T11:03:58;98913.00;;;8.40
25514;BMP180;48128;54.242;10.280;2024-02-23T11:06:28;98907.00;;;8.40
25514;BMP180;48128;54.242;10.280;2024-02-23T11:09:04;98923.00;;;8.40
25514;BMP180;48128;54.242;10.280;2024-02-23T11:11:31;98916.00;;;8.40
25514;BMP180;48128;54.242;10.280;2024-02-23T11:13:58;98912.00;;;8.30
25514;BMP180;48128;54.242;10.280;2024-02-23T11:16:31;98917.00;;;8.30
25514;BMP180;48128;54.242;10.280;2024-02-23T11:19:05;98919.00;;;8.40
25514;BMP180;48128;54.242;10.280;2024-02-23T11:21:35;98939.00;;;8.40
25514;BMP180;48128;54.242;10.280;2024-02-23T11:24:04;98917.00;;;8.50
25514;BMP180;48128;54.242;10.280;2024-02-23T11:26:31;98922.00;;;8.70
25514;BMP180;48128;54.242;10.280;2024-02-23T11:29:09;98929.00;;;8.90
25514;BMP180;48128;54.242;10.280;2024-02-23T11:31:36;98933.00;;;9.10
25514;BMP180;48128;54.242;10.280;2024-02-23T11:34:10;98924.00;;;9.20
25514;BMP180;48128;54.242;10.280;2024-02-23T11:36:38;98949.00;;;9.00
25514;BMP180;48128;54.242;10.280;2024-02-23T11:39:05;98950.00;;;9.10
25514;BMP180;48128;54.242;10.280;2024-02-23T11:41:32;98940.00;;;9.10
25514;BMP180;48128;54.242;10.280;2024-02-23T11:44:00;98948.00;;;8.90
25514;BMP180;48128;54.242;10.280;2024-02-23T11:46:27;98929.00;;;8.80
25514;BMP180;48128;54.242;10.280;2024-02-23T11:48:54;98931.00;;;8.80
25514;BMP180;48128;54.242;10.280;2024-02-23T11:51:23;98963.00;;;8.60
25514;BMP180;48128;54.242;10.280;2024-02-23T11:53:51;98957.00;;;8.60
25514;BMP180;48128;54.242;10.280;2024-02-23T11:56:19;98976.00;;;8.60
25514;BMP180;48128;54.242;10.280;2024-02-23T11:58:46;98953.00;;;8.60
25514;BMP180;48128;54.242;10.280;2024-02-23T12:01:14;98944.00;;;8.80
25514;BMP180;48128;54.242;10.280;2024-02-23T12:03:41;98931.00;;;8.80
25514;BMP180;48128;54.242;10.280;2024-02-23T12:06:10;98930.00;;;8.80
25514;BMP180;48128;54.242;10.280;2024-02-23T12:08:37;98957.00;;;8.70
25514;BMP180;48128;54.242;10.280;2024-02-23T12:11:09;98913.00;;;8.60
25514;BMP180;48128;54.242;10.280;2024-02-23T12:13:36;98935.00;;;8.60
25514;BMP180;48128;54.242;10.280;2024-02-23T12:16:03;98957.00;;;8.60
25514;BMP180;48128;54.242;10.280;2024-02-23T12:18:34;98940.00;;;8.60
25514;BMP180;48128;54.242;10.280;2024-02-23T12:21:03;98946.00;;;8.60
25514;BMP180;48128;54.242;10.280;2024-02-23T12:23:41;98940.00;;;8.70
25514;BMP180;48128;54.242;10.280;2024-02-23T12:26:09;98945.00;;;8.70
25514;BMP180;48128;54.242;10.280;2024-02-23T12:28:37;98943.00;;;8.70
25514;BMP180;48128;54.242;10.280;2024-02-23T12:31:04;98935.00;;;8.80
25514;BMP180;48128;54.242;10.280;2024-02-23T12:33:32;98941.00;;;8.70
25514;BMP180;48128;54.242;10.280;2024-02-23T12:36:02;98952.00;;;9.00
25514;BMP180;48128;54.242;10.280;2024-02-23T12:38:29;98968.00;;;9.40
25514;BMP180;48128;54.242;10.280;2024-02-23T12:40:56;98964.00;;;9.40
25514;BMP180;48128;54.242;10.280;2024-02-23T12:43:23;98968.00;;;9.30
25514;BMP180;48128;54.242;10.280;2024-02-23T12:45:54;98959.00;;;9.20
25514;BMP180;48128;54.242;10.280;2024-02-23T12:48:22;98949.00;;;9.10
25514;BMP180;48128;54.242;10.280;2024-02-23T12:50:49;98939.00;;;9.10
25514;BMP180;48128;54.242;10.280;2024-02-23T12:53:35;98946.00;;;9.00
25514;BMP180;48128;54.242;10.280;2024-02-23T12:56:06;98955.00;;;9.00
25514;BMP180;48128;54.242;10.280;2024-02-23T12:58:38;98943.00;;;8.90
25514;BMP180;48128;54.242;10.280;2024-02-23T13:01:06;98961.00;;;8.90
25514;BMP180;48128;54.242;10.280;2024-02-23T13:03:34;98974.00;;;8.80
25514;BMP180;48128;54.242;10.280;2024-02-23T13:06:02;98962.00;;;8.80
25514;BMP180;48128;54.242;10.280;2024-02-23T13:08:29;98971.00;;;8.80
25514;BMP180;48128;54.242;10.280;2024-02-23T13:10:59;98944.00;;;8.80
25514;BMP180;48128;54.242;10.280;2024-02-23T13:13:26;98981.00;;;8.80
25514;BMP180;48128;54.242;10.280;2024-02-23T13:15:54;98969.00;;;8.70
25514;BMP180;48128;54.242;10.280;2024-02-23T13:18:21;98981.00;;;8.70
25514;BMP180;48128;54.242;10.280;2024-02-23T13:20:50;98960.00;;;8.80
25514;BMP180;48128;54.242;10.280;2024-02-23T13:23:17;98964.00;;;8.90
25514;BMP180;48128;54.242;10.280;2024-02-23T13:25:44;98981.00;;;8.80
25514;BMP180;48128;54.242;10.280;2024-02-23T13:28:11;98974.00;;;8.80
25514;BMP180;48128;54.242;10.280;2024-02-23T13:30:38;99011.00;;;8.70
25514;BMP180;48128;54.242;10.280;2024-02-23T13:33:06;99012.00;;;8.60
25514;BMP180;48128;54.242;10.280;2024-02-23T13:35:35;99018.00;;;8.50
25514;BMP180;48128;54.242;10.280;2024-02-23T13:38:03;99008.00;;;8.50
25514;BMP180;48128;54.242;10.280;2024-02-23T13:40:30;99008.00;;;8.60
25514;BMP180;48128;54.242;10.280;2024-02-23T13:42:58;99030.00;;;8.50
25514;BMP180;48128;54.242;10.280;2024-02-23T13:45:26;99028.00;;;8.50
25514;BMP180;48128;54.242;10.280;2024-02-23T13:48:01;99006.00;;;8.50
25514;BMP180;48128;54.242;10.280;2024-02-23T13:50:28;99003.00;;;8.50
25514;BMP180;48128;54.242;10.280;2024-02-23T13:52:55;99008.00;;;8.60
25514;BMP180;48128;54.242;10.280;2024-02-23T13:55:23;99004.00;;;8.60
25514;BMP180;48128;54.242;10.280;2024-02-23T13:57:50;99000.00;;;8.60
25514;BMP180;48128;54.242;10.280;2024-02-23T14:00:17;99003.00;;;8.60
25514;BMP180;48128;54.242;10.280;2024-02-23T14:02:46;99029.00;;;8.70
25514;BMP180;48128;54.242;10.280;2024-02-23T14:05:14;99010.00;;;8.70
25514;BMP180;48128;54.242;10.280;2024-02-23T14:07:42;99000.00;;;8.60
25514;BMP180;48128;54.242;10.280;2024-02-23T14:10:09;99016.00;;;8.50